sensor_id;sensor_type;location;lat;lon;timestamp;noise_LAeq;noise_LA_min;noise_LA_max;noise_LA01;noise_LA95
37279;Laerm;7458;49.002;8.472;2023-02-25T00:01:17;48.78;43.04;63.20;;
37279;Laerm;7458;49.002;8.472;2023-02-25T00:03:44;46.52;42.41;53.37;;
37279;Laerm;7458;49.002;8.472;2023-02-25T00:06:12;48.48;43.99;54.14;;
37279;Laerm;7458;49.002;8.472;2023-02-25T00:08:42;47.90;43.77;57.88;;
37279;Laerm;7458;49.002;8.472;2023-02-25T00:11:12;47.04;42.71;57.98;;
37279;Laerm;7458;49.002;8.472;2023-02-25T00:13:40;47.70;43.68;54.51;;
37279;Laerm;7458;49.002;8.472;2023-02-25T00:16:07;47.08;42.35;53.29;;
37279;Laerm;7458;49.002;8.472;2023-02-25T00:18:35;65.25;43.04;89.87;;
37279;Laerm;7458;49.002;8.472;2023-02-25T00:21:04;63.55;43.34;77.11;;
37279;Laerm;7458;49.002;8.472;2023-02-25T00:23:31;46.95;42.47;53.51;;
37279;Laerm;7458;49.002;8.472;2023-02-25T00:26:06;46.67;41.89;61.91;;
37279;Laerm;7458;49.002;8.472;2023-02-25T00:28:34;52.94;42.76;80.76;;
37279;Laerm;7458;49.002;8.472;2023-02-25T00:31:08;47.32;42.53;59.25;;
37279;Laerm;7458;49.002;8.472;2023-02-25T00:33:37;47.69;41.68;54.25;;
37279;Laerm;7458;49.002;8.472;2023-02-25T00:36:08;46.23;42.03;52.97;;
37279;Laerm;7458;49.002;8.472;2023-02-25T00:38:35;46.79;42.29;53.52;;
37279;Laerm;7458;49.002;8.472;2023-02-25T00:41:09;47.67;41.82;54.31;;
37279;Laerm;7458;49.002;8.472;2023-02-25T00:43:39;46.88;43.04;53.95;;
37279;Laerm;7458;49.002;8.472;2023-02-25T00:46:05;49.28;41.30;63.16;;
37279;Laerm;7458;49.002;8.472;2023-02-25T00:48:30;50.93;41.68;69.83;;
37279;Laerm;7458;49.002;8.472;2023-02-25T00:50:56;47.15;43.29;59.58;;
37279;Laerm;7458;49.002;8.472;2023-02-25T00:53:22;46.71;42.98;52.91;;
37279;Laerm;7458;49.002;8.472;2023-02-25T00:55:57;45.95;41.30;53.29;;
37279;Laerm;7458;49.002;8.472;2023-02-25T00:58:23;46.45;41.75;53.80;;
37279;Laerm;7458;49.002;8.472;2023-02-25T01:00:48;45.89;41.68;53.18;;
37279;Laerm;7458;49.002;8.472;2023-02-25T01:03:14;46.11;41.61;53.26;;
37279;Laerm;7458;49.002;8.472;2023-02-25T01:05:40;45.99;41.30;53.95;;
37279;Laerm;7458;49.002;8.472;2023-02-25T01:08:10;46.20;40.43;58.01;;
37279;Laerm;7458;49.002;8.472;2023-02-25T01:10:39;47.86;42.35;67.90;;
37279;Laerm;7458;49.002;8.472;2023-02-25T01:13:06;46.40;42.47;53.03;;
37279;Laerm;7458;49.002;8.472;2023-02-25T01:15:32;45.95;40.89;52.97;;
37279;Laerm;7458;49.002;8.472;2023-02-25T01:17:57;47.78;40.89;59.76;;
37279;Laerm;7458;49.002;8.472;2023-02-25T01:20:23;46.65;41.30;59.97;;
37279;Laerm;7458;49.002;8.472;2023-02-25T01:22:49;45.68;40.53;60.46;;
37279;Laerm;7458;49.002;8.472;2023-02-25T01:25:14;45.47;39.99;53.01;;
37279;Laerm;7458;49.002;8.472;2023-02-25T01:27:42;45.90;42.29;52.71;;
37279;Laerm;7458;49.002;8.472;2023-02-25T01:30:09;46.21;41.22;53.74;;
37279;Laerm;7458;49.002;8.472;2023-02-25T01:32:36;45.96;41.19;53.49;;
37279;Laerm;7458;49.002;8.472;2023-02-25T01:35:03;46.29;40.03;55.33;;
37279;Laerm;7458;49.002;8.472;2023-02-25T01:37:29;45.45;41.30;52.78;;
37279;Laerm;7458;49.002;8.472;2023-02-25T01:39:55;45.72;39.81;53.19;;
37279;Laerm;7458;49.002;8.472;2023-02-25T01:42:21;45.62;40.33;52.88;;
37279;Laerm;7458;49.002;8.472;2023-02-25T01:48:14;45.61;40.13;56.71;;
37279;Laerm;7458;49.002;8.472;2023-02-25T01:50:50;45.38;39.58;53.18;;
37279;Laerm;7458;49.002;8.472;2023-02-25T01:53:27;47.96;41.14;78.06;;
37279;Laerm;7458;49.002;8.472;2023-02-25T01:55:56;47.09;41.46;55.40;;
37279;Laerm;7458;49.002;8.472;2023-02-25T01:58:26;50.81;41.22;70.79;;
37279;Laerm;7458;49.002;8.472;2023-02-25T02:00:52;47.56;40.43;57.15;;
37279;Laerm;7458;49.002;8.472;2023-02-25T02:03:25;46.21;42.09;53.51;;
37279;Laerm;7458;49.002;8.472;2023-02-25T02:08:42;47.50;40.89;60.08;;
37279;Laerm;7458;49.002;8.472;2023-02-25T02:11:08;46.07;41.22;53.57;;
37279;Laerm;7458;49.002;8.472;2023-02-25T02:13:38;46.03;40.43;61.87;;
37279;Laerm;7458;49.002;8.472;2023-02-25T02:19:04;47.90;40.62;64.26;;
37279;Laerm;7458;49.002;8.472;2023-02-25T02:31:07;45.49;40.62;53.28;;
37279;Laerm;7458;49.002;8.472;2023-02-25T02:37:03;46.81;42.03;66.20;;
37279;Laerm;7458;49.002;8.472;2023-02-25T02:42:47;46.91;42.16;61.98;;
37279;Laerm;7458;49.002;8.472;2023-02-25T02:45:27;46.63;42.59;53.89;;
37279;Laerm;7458;49.002;8.472;2023-02-25T02:48:02;47.60;41.89;55.32;;
37279;Laerm;7458;49.002;8.472;2023-02-25T02:50:33;52.31;43.04;70.99;;
37279;Laerm;7458;49.002;8.472;2023-02-25T02:53:10;47.82;43.39;55.01;;
37279;Laerm;7458;49.002;8.472;2023-02-25T02:55:43;47.91;43.14;71.69;;
37279;Laerm;7458;49.002;8.472;2023-02-25T02:58:18;47.05;42.82;54.50;;
37279;Laerm;7458;49.002;8.472;2023-02-25T03:00:52;47.26;42.85;54.87;;
37279;Laerm;7458;49.002;8.472;2023-02-25T03:03:28;48.79;43.14;54.79;;
37279;Laerm;7458;49.002;8.472;2023-02-25T03:06:08;47.90;43.77;54.81;;
37279;Laerm;7458;49.002;8.472;2023-02-25T03:08:46;47.46;43.37;55.01;;
37279;Laerm;7458;49.002;8.472;2023-02-25T03:11:14;47.31;42.35;54.81;;
37279;Laerm;7458;49.002;8.472;2023-02-25T03:13:40;47.38;42.41;54.71;;
37279;Laerm;7458;49.002;8.472;2023-02-25T03:16:12;48.72;43.04;55.75;;
37279;Laerm;7458;49.002;8.472;2023-02-25T03:19:25;46.55;41.82;54.64;;
37279;Laerm;7458;49.002;8.472;2023-02-25T03:22:03;47.13;42.09;54.91;;
37279;Laerm;7458;49.002;8.472;2023-02-25T03:24:40;47.46;42.82;56.10;;
37279;Laerm;7458;49.002;8.472;2023-02-25T03:27:33;48.22;42.22;61.88;;
37279;Laerm;7458;49.002;8.472;2023-02-25T03:33:10;47.52;41.96;55.20;;
37279;Laerm;7458;49.002;8.472;2023-02-25T03:35:40;48.15;42.53;60.15;;
37279;Laerm;7458;49.002;8.472;2023-02-25T03:38:17;48.11;42.65;55.60;;
37279;Laerm;7458;49.002;8.472;2023-02-25T03:40:47;47.41;42.59;56.33;;
37279;Laerm;7458;49.002;8.472;2023-02-25T03:43:22;48.88;43.54;54.88;;
37279;Laerm;7458;49.002;8.472;2023-02-25T03:45:50;52.79;42.98;70.24;;
37279;Laerm;7458;49.002;8.472;2023-02-25T03:48:16;49.01;43.19;57.50;;
37279;Laerm;7458;49.002;8.472;2023-02-25T03:50:53;47.30;42.03;54.99;;
37279;Laerm;7458;49.002;8.472;2023-02-25T03:53:25;47.14;41.82;55.24;;
37279;Laerm;7458;49.002;8.472;2023-02-25T03:55:53;47.14;42.35;55.41;;
37279;Laerm;7458;49.002;8.472;2023-02-25T03:58:20;47.48;42.82;54.77;;
37279;Laerm;7458;49.002;8.472;2023-02-25T04:00:50;47.32;42.09;55.05;;
37279;Laerm;7458;49.002;8.472;2023-02-25T04:03:17;47.04;42.03;55.45;;
37279;Laerm;7458;49.002;8.472;2023-02-25T04:05:43;46.97;41.75;54.85;;
37279;Laerm;7458;49.002;8.472;2023-02-25T04:08:09;47.10;41.38;56.03;;
37279;Laerm;7458;49.002;8.472;2023-02-25T04:10:43;46.92;41.30;54.75;;
37279;Laerm;7458;49.002;8.472;2023-02-25T04:13:11;46.91;41.22;54.81;;
37279;Laerm;7458;49.002;8.472;2023-02-25T04:15:37;47.45;42.76;54.96;;
37279;Laerm;7458;49.002;8.472;2023-02-25T04:18:03;47.43;42.65;55.53;;
37279;Laerm;7458;49.002;8.472;2023-02-25T04:20:29;47.49;42.16;55.35;;
37279;Laerm;7458;49.002;8.472;2023-02-25T04:22:55;49.70;41.68;67.60;;
37279;Laerm;7458;49.002;8.472;2023-02-25T04:25:21;46.73;41.14;54.99;;
37279;Laerm;7458;49.002;8.472;2023-02-25T04:27:47;47.02;41.22;55.33;;
37279;Laerm;7458;49.002;8.472;2023-02-25T04:30:13;46.80;41.46;54.76;;
37279;Laerm;7458;49.002;8.472;2023-02-25T04:32:39;46.95;41.14;54.70;;
37279;Laerm;7458;49.002;8.472;2023-02-25T04:35:06;46.80;41.61;55.10;;
37279;Laerm;7458;49.002;8.472;2023-02-25T04:37:37;47.13;40.98;57.49;;
37279;Laerm;7458;49.002;8.472;2023-02-25T04:40:04;47.53;42.53;56.07;;
37279;Laerm;7458;49.002;8.472;2023-02-25T04:42:37;47.14;42.71;55.44;;
37279;Laerm;7458;49.002;8.472;2023-02-25T04:45:04;55.76;43.39;79.78;;
37279;Laerm;7458;49.002;8.472;2023-02-25T04:47:30;47.78;43.44;55.93;;
37279;Laerm;7458;49.002;8.472;2023-02-25T04:49:56;48.39;43.54;58.13;;
37279;Laerm;7458;49.002;8.472;2023-02-25T04:52:23;47.79;43.81;55.04;;
37279;Laerm;7458;49.002;8.472;2023-02-25T04:54:48;47.79;42.59;59.26;;
37279;Laerm;7458;49.002;8.472;2023-02-25T04:57:15;48.30;42.71;55.20;;
37279;Laerm;7458;49.002;8.472;2023-02-25T04:59:41;48.43;42.35;59.56;;
37279;Laerm;7458;49.002;8.472;2023-02-25T05:02:07;52.26;43.14;70.42;;
37279;Laerm;7458;49.002;8.472;2023-02-25T05:04:35;48.53;43.14;59.17;;
37279;Laerm;7458;49.002;8.472;2023-02-25T05:07:01;47.58;42.65;59.23;;
37279;Laerm;7458;49.002;8.472;2023-02-25T05:09:27;48.11;42.98;55.48;;
37279;Laerm;7458;49.002;8.472;2023-02-25T05:11:52;48.03;43.09;56.08;;
37279;Laerm;7458;49.002;8.472;2023-02-25T05:14:18;51.04;42.82;69.74;;
37279;Laerm;7458;49.002;8.472;2023-02-25T05:16:44;47.72;42.53;55.91;;
37279;Laerm;7458;49.002;8.472;2023-02-25T05:19:22;47.24;42.22;55.16;;
37279;Laerm;7458;49.002;8.472;2023-02-25T05:21:50;47.46;42.53;55.99;;
37279;Laerm;7458;49.002;8.472;2023-02-25T05:24:16;48.77;41.96;61.43;;
37279;Laerm;7458;49.002;8.472;2023-02-25T05:26:43;49.83;43.34;66.05;;
37279;Laerm;7458;49.002;8.472;2023-02-25T05:29:10;48.30;42.09;67.51;;
37279;Laerm;7458;49.002;8.472;2023-02-25T05:31:35;48.59;43.09;57.20;;
37279;Laerm;7458;49.002;8.472;2023-02-25T05:34:02;49.09;43.34;59.52;;
37279;Laerm;7458;49.002;8.472;2023-02-25T05:36:28;47.88;42.76;55.89;;
37279;Laerm;7458;49.002;8.472;2023-02-25T05:38:56;47.90;43.14;55.62;;
37279;Laerm;7458;49.002;8.472;2023-02-25T05:41:27;47.66;42.88;55.44;;
37279;Laerm;7458;49.002;8.472;2023-02-25T05:43:54;47.86;43.09;55.00;;
37279;Laerm;7458;49.002;8.472;2023-02-25T05:46:19;52.29;43.99;72.54;;
37279;Laerm;7458;49.002;8.472;2023-02-25T05:48:46;48.20;43.19;56.52;;
37279;Laerm;7458;49.002;8.472;2023-02-25T05:51:19;47.69;43.04;55.95;;
37279;Laerm;7458;49.002;8.472;2023-02-25T05:53:47;48.19;43.63;59.46;;
37279;Laerm;7458;49.002;8.472;2023-02-25T05:56:20;47.56;42.03;56.73;;
37279;Laerm;7458;49.002;8.472;2023-02-25T05:58:46;47.38;42.53;55.17;;
37279;Laerm;7458;49.002;8.472;2023-02-25T06:01:17;47.34;42.16;55.39;;
37279;Laerm;7458;49.002;8.472;2023-02-25T06:03:45;47.53;42.59;66.33;;
37279;Laerm;7458;49.002;8.472;2023-02-25T06:06:14;50.44;43.34;69.02;;
37279;Laerm;7458;49.002;8.472;2023-02-25T06:08:41;47.29;42.65;55.16;;
37279;Laerm;7458;49.002;8.472;2023-02-25T06:11:11;51.31;43.24;70.29;;
37279;Laerm;7458;49.002;8.472;2023-02-25T06:13:40;49.95;43.49;65.91;;
37279;Laerm;7458;49.002;8.472;2023-02-25T06:16:06;49.47;42.82;62.06;;
37279;Laerm;7458;49.002;8.472;2023-02-25T06:18:32;48.77;43.34;56.94;;
37279;Laerm;7458;49.002;8.472;2023-02-25T06:21:07;48.00;43.04;57.30;;
37279;Laerm;7458;49.002;8.472;2023-02-25T06:23:35;49.41;42.93;62.74;;
37279;Laerm;7458;49.002;8.472;2023-02-25T06:26:03;50.37;42.82;66.70;;
37279;Laerm;7458;49.002;8.472;2023-02-25T06:28:29;50.88;44.15;67.97;;
37279;Laerm;7458;49.002;8.472;2023-02-25T06:30:55;52.50;43.34;71.07;;
37279;Laerm;7458;49.002;8.472;2023-02-25T06:33:21;50.92;43.39;67.77;;
37279;Laerm;7458;49.002;8.472;2023-02-25T06:35:52;50.57;42.82;66.99;;
37279;Laerm;7458;49.002;8.472;2023-02-25T06:38:18;49.13;42.93;58.92;;
37279;Laerm;7458;49.002;8.472;2023-02-25T06:40:45;49.28;43.04;58.65;;
37279;Laerm;7458;49.002;8.472;2023-02-25T06:43:11;49.95;42.82;67.84;;
37279;Laerm;7458;49.002;8.472;2023-02-25T06:45:36;48.05;43.85;58.15;;
37279;Laerm;7458;49.002;8.472;2023-02-25T06:48:02;47.67;43.19;58.41;;
37279;Laerm;7458;49.002;8.472;2023-02-25T06:50:28;47.94;43.29;59.35;;
37279;Laerm;7458;49.002;8.472;2023-02-25T06:52:56;48.63;44.07;56.79;;
37279;Laerm;7458;49.002;8.472;2023-02-25T06:55:22;53.44;43.49;66.53;;
37279;Laerm;7458;49.002;8.472;2023-02-25T06:57:47;51.93;43.81;68.47;;
37279;Laerm;7458;49.002;8.472;2023-02-25T07:00:13;49.07;43.94;56.32;;
37279;Laerm;7458;49.002;8.472;2023-02-25T07:02:39;55.22;43.81;69.39;;
37279;Laerm;7458;49.002;8.472;2023-02-25T07:05:05;53.10;43.63;76.16;;
37279;Laerm;7458;49.002;8.472;2023-02-25T07:07:31;52.45;42.53;69.77;;
37279;Laerm;7458;49.002;8.472;2023-02-25T07:09:57;52.93;43.39;72.10;;
37279;Laerm;7458;49.002;8.472;2023-02-25T07:12:22;48.27;43.49;57.22;;
37279;Laerm;7458;49.002;8.472;2023-02-25T07:14:49;54.27;42.47;70.76;;
37279;Laerm;7458;49.002;8.472;2023-02-25T07:17:15;51.58;42.29;65.01;;
37279;Laerm;7458;49.002;8.472;2023-02-25T07:19:40;48.19;43.24;62.63;;
37279;Laerm;7458;49.002;8.472;2023-02-25T07:22:06;48.50;43.39;59.13;;
37279;Laerm;7458;49.002;8.472;2023-02-25T07:24:34;52.81;44.31;69.22;;
37279;Laerm;7458;49.002;8.472;2023-02-25T07:27:00;61.32;44.90;81.11;;
37279;Laerm;7458;49.002;8.472;2023-02-25T07:29:26;50.89;44.35;66.81;;
37279;Laerm;7458;49.002;8.472;2023-02-25T07:31:52;53.54;44.76;74.27;;
37279;Laerm;7458;49.002;8.472;2023-02-25T07:34:17;53.03;43.86;70.97;;
37279;Laerm;7458;49.002;8.472;2023-02-25T07:36:43;54.63;44.62;72.36;;
37279;Laerm;7458;49.002;8.472;2023-02-25T07:39:11;50.16;43.29;66.94;;
37279;Laerm;7458;49.002;8.472;2023-02-25T07:41:37;50.38;44.43;69.87;;
37279;Laerm;7458;49.002;8.472;2023-02-25T07:44:04;50.72;44.27;69.03;;
37279;Laerm;7458;49.002;8.472;2023-02-25T07:46:32;51.60;43.58;68.25;;
37279;Laerm;7458;49.002;8.472;2023-02-25T07:48:58;55.77;43.51;71.55;;
37279;Laerm;7458;49.002;8.472;2023-02-25T07:51:25;54.25;42.98;78.67;;
37279;Laerm;7458;49.002;8.472;2023-02-25T07:53:53;56.34;42.53;70.64;;
37279;Laerm;7458;49.002;8.472;2023-02-25T07:56:22;51.52;44.07;69.15;;
37279;Laerm;7458;49.002;8.472;2023-02-25T07:58:48;53.20;43.80;66.69;;
37279;Laerm;7458;49.002;8.472;2023-02-25T08:01:31;54.72;43.77;75.48;;
37279;Laerm;7458;49.002;8.472;2023-02-25T08:04:04;52.27;43.58;67.02;;
37279;Laerm;7458;49.002;8.472;2023-02-25T08:06:33;56.34;43.24;70.03;;
37279;Laerm;7458;49.002;8.472;2023-02-25T08:08:59;48.93;42.47;66.63;;
37279;Laerm;7458;49.002;8.472;2023-02-25T08:11:25;56.80;43.34;75.99;;
37279;Laerm;7458;49.002;8.472;2023-02-25T08:13:52;55.46;43.09;76.04;;
37279;Laerm;7458;49.002;8.472;2023-02-25T08:16:20;53.02;44.11;68.40;;
37279;Laerm;7458;49.002;8.472;2023-02-25T08:18:47;48.58;43.14;60.69;;
37279;Laerm;7458;49.002;8.472;2023-02-25T08:21:16;53.94;43.54;69.73;;
37279;Laerm;7458;49.002;8.472;2023-02-25T08:23:46;52.97;43.54;69.72;;
37279;Laerm;7458;49.002;8.472;2023-02-25T08:26:15;54.18;42.82;74.31;;
37279;Laerm;7458;49.002;8.472;2023-02-25T08:28:43;50.61;43.63;67.75;;
37279;Laerm;7458;49.002;8.472;2023-02-25T08:31:10;51.52;43.34;68.46;;
37279;Laerm;7458;49.002;8.472;2023-02-25T08:33:40;51.52;43.49;65.81;;
37279;Laerm;7458;49.002;8.472;2023-02-25T08:36:19;51.11;43.14;66.10;;
37279;Laerm;7458;49.002;8.472;2023-02-25T08:38:46;55.74;44.90;77.40;;
37279;Laerm;7458;49.002;8.472;2023-02-25T08:41:12;51.47;44.07;68.12;;
37279;Laerm;7458;49.002;8.472;2023-02-25T08:43:38;48.31;44.23;59.74;;
37279;Laerm;7458;49.002;8.472;2023-02-25T08:46:06;53.95;44.35;69.24;;
37279;Laerm;7458;49.002;8.472;2023-02-25T08:48:33;56.65;44.35;73.90;;
37279;Laerm;7458;49.002;8.472;2023-02-25T08:51:08;55.79;44.23;73.82;;
37279;Laerm;7458;49.002;8.472;2023-02-25T08:53:39;55.43;43.99;71.22;;
37279;Laerm;7458;49.002;8.472;2023-02-25T08:56:08;61.31;45.01;84.33;;
37279;Laerm;7458;49.002;8.472;2023-02-25T08:58:35;54.01;43.49;72.78;;
37279;Laerm;7458;49.002;8.472;2023-02-25T09:01:05;54.55;44.54;70.86;;
37279;Laerm;7458;49.002;8.472;2023-02-25T09:03:33;52.60;43.86;64.95;;
37279;Laerm;7458;49.002;8.472;2023-02-25T09:06:00;52.94;43.29;70.21;;
37279;Laerm;7458;49.002;8.472;2023-02-25T09:08:25;54.65;43.19;70.85;;
37279;Laerm;7458;49.002;8.472;2023-02-25T09:10:53;51.93;44.27;73.10;;
37279;Laerm;7458;49.002;8.472;2023-02-25T09:13:18;52.71;43.72;67.87;;
37279;Laerm;7458;49.002;8.472;2023-02-25T09:15:44;51.55;44.76;66.24;;
37279;Laerm;7458;49.002;8.472;2023-02-25T09:18:10;55.24;42.98;69.65;;
37279;Laerm;7458;49.002;8.472;2023-02-25T09:20:36;54.97;44.07;69.86;;
37279;Laerm;7458;49.002;8.472;2023-02-25T09:23:02;57.16;43.72;73.29;;
37279;Laerm;7458;49.002;8.472;2023-02-25T09:25:27;54.25;43.63;71.09;;
37279;Laerm;7458;49.002;8.472;2023-02-25T09:27:55;54.91;43.58;69.92;;
37279;Laerm;7458;49.002;8.472;2023-02-25T09:30:21;49.10;42.71;68.98;;
37279;Laerm;7458;49.002;8.472;2023-02-25T09:32:47;59.22;43.72;78.89;;
37279;Laerm;7458;49.002;8.472;2023-02-25T09:35:12;54.22;43.34;74.99;;
37279;Laerm;7458;49.002;8.472;2023-02-25T09:37:38;54.49;42.93;74.03;;
37279;Laerm;7458;49.002;8.472;2023-02-25T09:40:05;49.72;42.16;67.94;;
37279;Laerm;7458;49.002;8.472;2023-02-25T09:43:13;50.96;42.88;68.08;;
37279;Laerm;7458;49.002;8.472;2023-02-25T09:45:40;61.42;43.49;80.36;;
37279;Laerm;7458;49.002;8.472;2023-02-25T09:48:34;55.71;44.87;77.76;;
37279;Laerm;7458;49.002;8.472;2023-02-25T09:51:21;54.70;44.80;72.20;;
37279;Laerm;7458;49.002;8.472;2023-02-25T09:56:34;52.49;44.15;72.48;;
37279;Laerm;7458;49.002;8.472;2023-02-25T09:59:00;54.75;43.63;71.62;;
37279;Laerm;7458;49.002;8.472;2023-02-25T10:01:36;56.49;43.44;76.42;;
37279;Laerm;7458;49.002;8.472;2023-02-25T10:06:52;58.50;42.47;79.78;;
37279;Laerm;7458;49.002;8.472;2023-02-25T10:09:47;56.06;44.58;69.10;;
37279;Laerm;7458;49.002;8.472;2023-02-25T10:18:21;49.75;43.09;66.56;;
37279;Laerm;7458;49.002;8.472;2023-02-25T10:24:24;48.77;43.58;62.63;;
37279;Laerm;7458;49.002;8.472;2023-02-25T10:27:06;53.06;44.07;69.71;;
37279;Laerm;7458;49.002;8.472;2023-02-25T10:29:43;55.05;43.94;75.12;;
37279;Laerm;7458;49.002;8.472;2023-02-25T10:32:26;48.68;43.72;58.70;;
37279;Laerm;7458;49.002;8.472;2023-02-25T10:34:59;53.00;44.43;71.76;;
37279;Laerm;7458;49.002;8.472;2023-02-25T10:37:35;50.87;43.90;68.20;;
37279;Laerm;7458;49.002;8.472;2023-02-25T10:40:05;53.40;44.73;70.42;;
37279;Laerm;7458;49.002;8.472;2023-02-25T10:42:36;52.25;43.68;70.63;;
37279;Laerm;7458;49.002;8.472;2023-02-25T10:45:10;53.61;44.35;68.55;;
37279;Laerm;7458;49.002;8.472;2023-02-25T10:47:41;58.10;44.58;76.99;;
37279;Laerm;7458;49.002;8.472;2023-02-25T10:50:28;53.73;43.99;71.07;;
37279;Laerm;7458;49.002;8.472;2023-02-25T10:55:47;56.46;44.11;73.23;;
37279;Laerm;7458;49.002;8.472;2023-02-25T10:58:31;52.97;44.79;67.71;;
37279;Laerm;7458;49.002;8.472;2023-02-25T11:01:16;56.04;44.69;72.89;;
37279;Laerm;7458;49.002;8.472;2023-02-25T11:06:19;49.42;44.07;63.36;;
37279;Laerm;7458;49.002;8.472;2023-02-25T11:08:46;54.13;44.58;71.57;;
37279;Laerm;7458;49.002;8.472;2023-02-25T11:12:08;53.14;44.27;67.96;;
37279;Laerm;7458;49.002;8.472;2023-02-25T11:14:37;50.87;43.72;68.46;;
37279;Laerm;7458;49.002;8.472;2023-02-25T11:17:22;53.39;44.23;72.32;;
37279;Laerm;7458;49.002;8.472;2023-02-25T11:20:00;59.10;44.51;79.02;;
37279;Laerm;7458;49.002;8.472;2023-02-25T11:22:38;53.82;44.47;72.46;;
37279;Laerm;7458;49.002;8.472;2023-02-25T11:25:19;54.59;44.27;71.63;;
37279;Laerm;7458;49.002;8.472;2023-02-25T11:27:55;53.22;45.01;70.78;;
37279;Laerm;7458;49.002;8.472;2023-02-25T11:30:36;55.00;44.43;76.67;;
37279;Laerm;7458;49.002;8.472;2023-02-25T11:33:12;56.29;44.87;74.04;;
37279;Laerm;7458;49.002;8.472;2023-02-25T11:35:43;52.51;44.19;71.14;;
37279;Laerm;7458;49.002;8.472;2023-02-25T11:38:37;51.29;45.11;68.60;;
37279;Laerm;7458;49.002;8.472;2023-02-25T11:41:20;53.06;43.68;68.26;;
37279;Laerm;7458;49.002;8.472;2023-02-25T11:43:47;53.25;44.20;71.06;;
37279;Laerm;7458;49.002;8.472;2023-02-25T11:46:26;58.16;44.39;74.81;;
37279;Laerm;7458;49.002;8.472;2023-02-25T11:49:23;54.34;45.42;66.66;;
37279;Laerm;7458;49.002;8.472;2023-02-25T12:01:51;55.11;44.39;73.70;;
37279;Laerm;7458;49.002;8.472;2023-02-25T12:04:38;55.29;44.31;71.32;;
37279;Laerm;7458;49.002;8.472;2023-02-25T12:25:10;53.51;44.43;69.27;;
37279;Laerm;7458;49.002;8.472;2023-02-25T12:28:23;55.10;43.44;72.55;;
37279;Laerm;7458;49.002;8.472;2023-02-25T12:34:06;53.18;43.51;72.66;;
37279;Laerm;7458;49.002;8.472;2023-02-25T12:39:31;52.32;43.04;70.89;;
37279;Laerm;7458;49.002;8.472;2023-02-25T12:48:05;53.07;43.54;72.16;;
37279;Laerm;7458;49.002;8.472;2023-02-25T13:02:42;57.20;43.99;75.66;;
37279;Laerm;7458;49.002;8.472;2023-02-25T13:08:27;55.19;43.99;70.44;;
37279;Laerm;7458;49.002;8.472;2023-02-25T13:17:17;51.96;42.93;71.43;;
37279;Laerm;7458;49.002;8.472;2023-02-25T13:25:44;55.73;44.11;76.01;;
37279;Laerm;7458;49.002;8.472;2023-02-25T13:31:13;47.25;42.29;54.87;;
37279;Laerm;7458;49.002;8.472;2023-02-25T13:34:12;64.73;43.37;96.69;;
37279;Laerm;7458;49.002;8.472;2023-02-25T13:40:16;51.49;42.98;69.33;;
37279;Laerm;7458;49.002;8.472;2023-02-25T14:00:23;64.74;44.51;94.29;;
37279;Laerm;7458;49.002;8.472;2023-02-25T14:03:30;51.84;43.49;69.31;;
37279;Laerm;7458;49.002;8.472;2023-02-25T14:09:20;57.31;43.34;75.06;;
37279;Laerm;7458;49.002;8.472;2023-02-25T14:39:42;50.43;42.71;71.55;;
37279;Laerm;7458;49.002;8.472;2023-02-25T14:42:32;52.42;42.76;68.22;;
37279;Laerm;7458;49.002;8.472;2023-02-25T14:45:17;53.29;42.93;69.04;;
37279;Laerm;7458;49.002;8.472;2023-02-25T14:48:05;53.01;42.42;71.21;;
37279;Laerm;7458;49.002;8.472;2023-02-25T14:59:21;53.71;43.44;71.43;;
37279;Laerm;7458;49.002;8.472;2023-02-25T15:02:13;56.50;44.11;71.77;;
37279;Laerm;7458;49.002;8.472;2023-02-25T15:10:51;53.64;42.82;67.91;;
37279;Laerm;7458;49.002;8.472;2023-02-25T15:21:48;54.00;44.35;73.92;;
37279;Laerm;7458;49.002;8.472;2023-02-25T15:26:53;57.34;44.11;78.74;;
37279;Laerm;7458;49.002;8.472;2023-02-25T15:32:24;57.04;44.35;73.71;;
37279;Laerm;7458;49.002;8.472;2023-02-25T15:35:11;52.35;43.72;69.79;;
37279;Laerm;7458;49.002;8.472;2023-02-25T15:42:54;54.04;43.68;70.36;;
37279;Laerm;7458;49.002;8.472;2023-02-25T16:06:38;50.90;42.88;70.82;;
37279;Laerm;7458;49.002;8.472;2023-02-25T16:09:14;54.14;43.99;72.65;;
37279;Laerm;7458;49.002;8.472;2023-02-25T16:11:49;55.41;44.03;68.49;;
37279;Laerm;7458;49.002;8.472;2023-02-25T16:14:32;59.76;44.66;80.20;;
37279;Laerm;7458;49.002;8.472;2023-02-25T16:17:26;55.43;43.24;75.06;;
37279;Laerm;7458;49.002;8.472;2023-02-25T16:19:58;48.37;43.34;62.06;;
37279;Laerm;7458;49.002;8.472;2023-02-25T16:22:27;54.16;44.27;73.23;;
37279;Laerm;7458;49.002;8.472;2023-02-25T16:24:59;55.40;43.81;71.11;;
37279;Laerm;7458;49.002;8.472;2023-02-25T16:30:38;54.34;44.51;68.55;;
37279;Laerm;7458;49.002;8.472;2023-02-25T16:33:50;54.72;45.07;74.47;;
37279;Laerm;7458;49.002;8.472;2023-02-25T16:36:29;54.37;44.69;71.63;;
37279;Laerm;7458;49.002;8.472;2023-02-25T16:39:11;52.53;44.80;67.44;;
37279;Laerm;7458;49.002;8.472;2023-02-25T16:41:39;57.63;45.63;74.65;;
37279;Laerm;7458;49.002;8.472;2023-02-25T16:44:06;54.36;45.91;71.94;;
37279;Laerm;7458;49.002;8.472;2023-02-25T16:46:37;53.51;44.76;70.99;;
37279;Laerm;7458;49.002;8.472;2023-02-25T16:49:10;52.99;45.14;69.51;;
37279;Laerm;7458;49.002;8.472;2023-02-25T16:51:43;52.33;44.72;72.18;;
37279;Laerm;7458;49.002;8.472;2023-02-25T16:54:25;60.29;45.27;80.10;;
37279;Laerm;7458;49.002;8.472;2023-02-25T16:56:58;64.45;45.66;77.40;;
37279;Laerm;7458;49.002;8.472;2023-02-25T16:59:24;57.76;44.51;71.46;;
37279;Laerm;7458;49.002;8.472;2023-02-25T17:04:31;57.99;45.45;88.51;;
37279;Laerm;7458;49.002;8.472;2023-02-25T17:07:14;54.21;44.80;69.75;;
37279;Laerm;7458;49.002;8.472;2023-02-25T17:09:51;57.44;45.48;71.92;;
37279;Laerm;7458;49.002;8.472;2023-02-25T17:14:59;57.69;48.16;69.40;;
37279;Laerm;7458;49.002;8.472;2023-02-25T17:17:31;56.81;45.33;85.56;;
37279;Laerm;7458;49.002;8.472;2023-02-25T17:20:02;56.22;43.58;73.12;;
37279;Laerm;7458;49.002;8.472;2023-02-25T17:22:32;57.20;45.30;68.81;;
37279;Laerm;7458;49.002;8.472;2023-02-25T17:24:59;51.62;44.23;67.74;;
37279;Laerm;7458;49.002;8.472;2023-02-25T17:27:26;55.32;44.07;80.98;;
37279;Laerm;7458;49.002;8.472;2023-02-25T17:29:54;49.31;44.11;61.70;;
37279;Laerm;7458;49.002;8.472;2023-02-25T17:32:26;57.43;44.03;88.11;;
37279;Laerm;7458;49.002;8.472;2023-02-25T17:34:55;54.93;43.94;75.92;;
37279;Laerm;7458;49.002;8.472;2023-02-25T17:37:24;54.30;44.19;67.57;;
37279;Laerm;7458;49.002;8.472;2023-02-25T17:39:52;53.92;43.19;74.55;;
37279;Laerm;7458;49.002;8.472;2023-02-25T17:42:37;51.79;43.58;65.30;;
37279;Laerm;7458;49.002;8.472;2023-02-25T17:48:19;50.38;42.71;68.23;;
37279;Laerm;7458;49.002;8.472;2023-02-25T17:51:03;54.26;44.03;81.58;;
37279;Laerm;7458;49.002;8.472;2023-02-25T17:53:45;50.97;44.11;62.20;;
37279;Laerm;7458;49.002;8.472;2023-02-25T17:56:19;56.29;44.15;77.77;;
37279;Laerm;7458;49.002;8.472;2023-02-25T17:58:58;53.56;43.90;67.50;;
37279;Laerm;7458;49.002;8.472;2023-02-25T18:01:30;53.48;43.54;67.71;;
37279;Laerm;7458;49.002;8.472;2023-02-25T18:03:57;56.14;44.69;69.98;;
37279;Laerm;7458;49.002;8.472;2023-02-25T18:06:42;51.63;43.90;64.77;;
37279;Laerm;7458;49.002;8.472;2023-02-25T18:12:04;55.17;43.77;81.64;;
37279;Laerm;7458;49.002;8.472;2023-02-25T18:14:39;53.41;43.39;66.79;;
37279;Laerm;7458;49.002;8.472;2023-02-25T18:17:26;54.11;43.72;72.28;;
37279;Laerm;7458;49.002;8.472;2023-02-25T18:19:55;47.64;43.09;54.71;;
37279;Laerm;7458;49.002;8.472;2023-02-25T18:22:39;54.55;44.03;67.18;;